Benton, New Hampshire
Current Conditions -  °F | °C
As of 1:35 PM on Saturday 25 Oct 2014 (Local Time) from K1P1 Reporting Station
Clear Clear  
Wind Chill: 60°   Ceiling: Unl
Heat Index: 60°   Visibility: 10mi
Dew Point: 42°   Wind: 6mph
Humidity: 51%   Direction: 260°W
Pressure: 29.62"   Gusts: NA
Location:  44.0015°N, 72.0028°W
Report Text: K1P1 251735Z AUTO 26005KT 10SM CLR 15/05 A2962 RMK AO2 T01540053
Loading
Personal Weather Stations






























Interactive Weather Map
Tropical Storm Tracking
New forecast layout! Learn more

10-Day Weather Forecast

Advertisements
Track Severe Weather on mobile